Terminal Aerodrome Forecast
Issued by NWS Jacksonville, FL

Home | Current Version | Previous Version | Text Only | Print | Product List | Glossary On
Versions: 1 2 3 4 5 6 7 8 9 10 11 12 13 14 15 16 17
000
FTUS42 KJAX 260540
TAFGNV
TAF
KGNV 260540Z 2606/2706 10003KT P6SM FEW045 BKN250
      TEMPO 2609/2612 3SM BR
     FM261200 11003KT P6SM FEW025 BKN200
     FM261500 14006KT P6SM SCT035 BKN120
     FM261800 13006KT P6SM SCT045 BKN100
     FM262100 12006KT P6SM BKN050
     FM270000 08003KT P6SM BKN100=

USA.gov is the U.S. government's official web portal to all federal, state and local government web resources and services.